地図

経路データ

SID SEASON NUMBER BASIN SUBBASIN NAME ISO_TIME NATURE LAT LON WMO_WIND WMO_PRES WMO_AGENCY TRACK_TYPE DIST2LAND LANDFALL IFLAG USA_AGENCY USA_ATCF_ID USA_LAT USA_LON USA_RECORD USA_STATUS USA_WIND USA_PRES USA_SSHS USA_R34_NE USA_R34_SE USA_R34_SW USA_R34_NW USA_R50_NE USA_R50_SE USA_R50_SW USA_R50_NW USA_R64_NE USA_R64_SE USA_R64_SW USA_R64_NW USA_POCI USA_ROCI USA_RMW USA_EYE TOKYO_LAT TOKYO_LON TOKYO_GRADE TOKYO_WIND TOKYO_PRES TOKYO_R50_DIR TOKYO_R50_LONG TOKYO_R50_SHORT TOKYO_R30_DIR TOKYO_R30_LONG TOKYO_R30_SHORT TOKYO_LAND CMA_LAT CMA_LON CMA_CAT CMA_WIND CMA_PRES HKO_LAT HKO_LON HKO_CAT HKO_WIND HKO_PRES NEWDELHI_LAT NEWDELHI_LON NEWDELHI_GRADE NEWDELHI_WIND NEWDELHI_PRES NEWDELHI_CI NEWDELHI_DP NEWDELHI_POCI REUNION_LAT REUNION_LON REUNION_TYPE REUNION_WIND REUNION_PRES REUNION_TNUM REUNION_CI REUNION_RMW REUNION_R34_NE REUNION_R34_SE REUNION_R34_SW REUNION_R34_NW REUNION_R50_NE REUNION_R50_SE REUNION_R50_SW REUNION_R50_NW REUNION_R64_NE REUNION_R64_SE REUNION_R64_SW REUNION_R64_NW BOM_LAT BOM_LON BOM_TYPE BOM_WIND BOM_PRES BOM_TNUM BOM_CI BOM_RMW BOM_R34_NE BOM_R34_SE BOM_R34_SW BOM_R34_NW BOM_R50_NE BOM_R50_SE BOM_R50_SW BOM_R50_NW BOM_R64_NE BOM_R64_SE BOM_R64_SW BOM_R64_NW BOM_ROCI BOM_POCI BOM_EYE BOM_POS_METHOD BOM_PRES_METHOD NADI_LAT NADI_LON NADI_CAT NADI_WIND NADI_PRES WELLINGTON_LAT WELLINGTON_LON WELLINGTON_WIND WELLINGTON_PRES DS824_LAT DS824_LON DS824_STAGE DS824_WIND DS824_PRES TD9636_LAT TD9636_LON TD9636_STAGE TD9636_WIND TD9636_PRES TD9635_LAT TD9635_LON TD9635_WIND TD9635_PRES TD9635_ROCI NEUMANN_LAT NEUMANN_LON NEUMANN_CLASS NEUMANN_WIND NEUMANN_PRES MLC_LAT MLC_LON MLC_CLASS MLC_WIND MLC_PRES USA_GUST BOM_GUST BOM_GUST_PER REUNION_GUST REUNION_GUST_PER USA_SEAHGT USA_SEARAD_NE USA_SEARAD_SE USA_SEARAD_SW USA_SEARAD_NW STORM_SPEED STORM_DIR
1979043S11161 1979 12 SP MM ROSA 1979-02-11 23:00:00 NR -11.2000 160.900 20 bom main 93 93 ______O_______ -1 -11.2000 160.900 20 20 1.00000 45 45 14 224
1979043S11161 1979 12 SP MM ROSA 1979-02-12 00:00:00 TS -11.3644 160.739 main 125 125 ______P__O__O_ -1 -11.4288 160.627 20 20 -11.4000 160.600 TC -11.2000 161.100 TC 10 1008 17 232
1979043S11161 1979 12 SP EA ROSA 1979-02-12 03:00:00 TS -11.9166 159.973 main 219 219 ______P__P__P_ -1 -12.0850 159.817 20 20 -11.9803 159.817 TC -11.6003 160.362 TC 10 1008 18 234
1979043S11161 1979 12 SP EA ROSA 1979-02-12 06:00:00 TS -12.4300 159.212 main 298 298 ______P__P__O_ -1 -12.6344 159.040 20 20 -12.4877 159.055 TC -12.1000 159.600 TC 10 1008 17 237
1979043S11161 1979 12 SP EA ROSA 1979-02-12 09:00:00 TS -12.8540 158.493 main 375 375 ______P__P__P_ -1 -12.9985 158.326 20 20 -12.8510 158.340 TC -12.7126 158.813 TC 10 1008 16 242
1979043S11161 1979 12 SP EA ROSA 1979-02-12 11:00:00 TS -13.0335 158.042 20 bom main 408 408 ______O__P__P_ -1 -13.1000 157.900 20 20 1.00000 -12.9785 157.904 TC -13.0221 158.322 TC 10 1008 45 45 14 252
1979043S11161 1979 12 SP EA ROSA 1979-02-12 12:00:00 TS -13.0670 157.835 main 429 429 ______P__O__O_ -1 -13.1009 157.705 20 20 -13.0000 157.700 TC -13.1000 158.100 TC 10 1008 11 279
1979043S11161 1979 12 SP EA ROSA 1979-02-12 15:00:00 TS -12.9146 157.297 main 441 439 ______P__P__P_ -1 -12.9324 157.179 20 20 -12.8919 157.150 TC -12.9196 157.562 TC 10 1008 11 297
1979043S11161 1979 12 SP EA ROSA 1979-02-12 18:00:00 TS -12.5603 156.822 main 453 431 ______P__P__O_ -1 -12.5874 156.705 20 20 -12.5934 156.660 TC -12.5000 157.100 TC 10 1008 12 308
1979043S11161 1979 12 SP EA ROSA 1979-02-12 21:00:00 TS -12.1865 156.349 main 435 419 ______P__P__P_ -1 -12.1690 156.235 20 20 -12.1983 156.191 TC -12.1923 156.623 TC 10 1008 12 308
1979043S11161 1979 12 SP EA ROSA 1979-02-12 23:00:00 TS -11.9405 156.018 20 bom main 418 418 ______O__P__P_ -1 -11.9000 155.900 20 20 1.00000 -11.9274 155.869 TC -11.9942 156.284 TC 10 1008 45 45 12 305
1979043S11161 1979 12 SP EA ROSA 1979-02-13 00:00:00 TS -11.8351 155.831 main 420 418 ______P__O__O_ -1 -11.8052 155.694 20 20 -11.8000 155.700 TC -11.9000 156.100 TC 10 1008 13 295
1979043S11161 1979 12 SP EA ROSA 1979-02-13 03:00:00 TS -11.5614 155.198 main 429 420 ______P__P__P_ -1 -11.5299 155.041 20 20 -11.5117 155.088 TC -11.6425 155.465 TC 10 1008 14 293
1979043S11161 1979 12 SP EA ROSA 1979-02-13 06:00:00 TS -11.3044 154.545 main 422 364 ______P__P__O_ -1 -11.2724 154.379 20 20 -11.2407 154.455 TC -11.4000 154.800 TC 10 1008 14 292
1979043S11161 1979 12 SP EA ROSA 1979-02-13 09:00:00 TS -11.0577 153.920 main 354 318 ______P__P__P_ -1 -11.0390 153.761 20 20 -10.9992 153.844 TC -11.1350 154.155 TC 10 1008 13 292
1979043S11161 1979 12 SP EA ROSA 1979-02-13 11:00:00 TS -10.9109 153.547 20 bom main 307 297 ______O__P__P_ -1 -10.9000 153.400 20 20 1.00000 -10.8609 153.471 TC -10.9719 153.769 TC 10 1008 45 45 11 293
1979043S11161 1979 12 SP EA ROSA 1979-02-13 12:00:00 TS -10.8401 153.388 main 296 251 ______P__O__O_ -1 -10.8202 153.265 20 20 -10.8000 153.300 TC -10.9000 153.600 TC 10 1008 9 297
1979043S11161 1979 12 SP EA ROSA 1979-02-13 15:00:00 TS -10.6489 153.017 main 251 218 ______P__P__P_ -1 -10.5965 152.932 20 20 -10.6153 152.915 TC -10.7348 153.205 TC 10 1008 7 297
1979043S11161 1979 12 SP EA ROSA 1979-02-13 18:00:00 TS -10.4991 152.714 main 218 186 ______P__P__O_ -1 -10.4185 152.650 20 20 -10.4787 152.593 TC -10.6000 152.900 TC 10 1008 7 295
1979043S11161 1979 12 SP EA ROSA 1979-02-13 21:00:00 TS -10.3740 152.420 main 186 164 ______P__P__P_ -1 -10.3145 152.348 20 20 -10.4028 152.274 TC -10.4048 152.637 TC 10 1008 7 288
1979043S11161 1979 12 SP EA ROSA 1979-02-13 23:00:00 TS -10.3359 152.189 20 1008 bom main 164 153 ______O__P__P_ -1 -10.3000 152.100 20 20 1008 1.00000 -10.3921 152.034 TC -10.3156 152.432 TC 10 1008 45 45 7 275
1979043S11161 1979 12 SP EA ROSA 1979-02-14 00:00:00 TS -10.3396 152.042 main 142 88 ______P__O__O_ -1 -10.3187 151.927 20 20 1008 -10.4000 151.900 TC 15 1008 -10.3000 152.300 TC 10 1008 11 261
1979043S11161 1979 12 SP EA ROSA 1979-02-14 03:00:00 TS -10.4427 151.484 main 88 21 ______P__P__P_ -1 -10.4477 151.345 20 20 1008 -10.4827 151.362 TC 15 1008 -10.3976 151.745 TC 10 1008 12 256
1979043S11161 1979 12 SP EA ROSA 1979-02-14 06:00:00 TS -10.6268 150.859 main 21 10 ______P__P__O_ -1 -10.6471 150.710 20 20 1008 -10.6332 150.766 TC 15 1008 -10.6000 151.100 TC 10 1008 13 252
1979043S11161 1979 12 SP EA ROSA 1979-02-14 09:00:00 TS -10.8305 150.239 main 11 11 ______P__P__P_ -1 -10.8668 150.084 20 20 1008 -10.8171 150.162 TC 15 1008 -10.8075 150.470 TC 10 1008 13 251
1979043S11161 1979 12 SP EA ROSA 1979-02-14 11:00:00 TS -10.9611 149.852 20 1008 bom main 44 44 ______O__P__P_ -1 -11.0000 149.700 20 20 1008 1.00000 -10.9412 149.779 TC 15 1008 -10.9422 150.077 TC 10 1008 45 45 12 252
1979043S11161 1979 12 SP EA ROSA 1979-02-14 12:00:00 TS -11.0119 149.680 main 49 49 ______P__O__O_ -1 -11.0357 149.541 20 20 1007 -11.0000 149.600 TC 15 1008 -11.0000 149.900 TC 10 1008 9 255
1979043S11161 1979 12 SP EA ROSA 1979-02-14 15:00:00 TS -11.1179 149.244 main 84 84 ______P__P__P_ -1 -11.1237 149.108 20 20 1007 -11.1153 149.153 TC 15 1007 -11.1148 149.470 TC 12 1007 8 256
1979043S11161 1979 12 SP EA ROSA 1979-02-14 18:00:00 TS -11.2104 148.858 main 101 101 ______P__P__O_ -1 -11.2046 148.721 20 20 1007 -11.2267 148.754 TC 15 1007 -11.2000 149.100 TC 15 1007 8 256
1979043S11161 1979 12 SP EA ROSA 1979-02-14 21:00:00 TS -11.3113 148.479 main 123 123 ______P__P__P_ -1 -11.3066 148.351 20 20 1007 -11.3498 148.378 TC 15 1007 -11.2774 148.707 TC 15 1007 8 253
1979043S11161 1979 12 SP EA ROSA 1979-02-14 23:00:00 TS -11.3985 148.222 20 1007 bom main 136 134 ______O__P__P_ -1 -11.4000 148.100 20 20 1007 1.00000 -11.4460 148.128 TC 15 1007 -11.3495 148.439 TC 15 1007 45 45 8 249
1979043S11161 1979 12 SP EA ROSA 1979-02-15 00:00:00 TS -11.4569 148.085 main 146 145 ______P__O__O_ -1 -11.4706 147.956 20 20 1006 -11.5000 148.000 TC 15 1007 -11.4000 148.300 TC 15 1007 10 243
1979043S11161 1979 12 SP EA ROSA 1979-02-15 03:00:00 TS -11.6876 147.644 main 173 173 ______P__P__P_ -1 -11.7186 147.515 20 20 1006 -11.7166 147.566 TC 15 1006 -11.6275 147.850 TC 15 1006 10 240
1979043S11161 1979 12 SP EA ROSA 1979-02-15 06:00:00 TS -11.9497 147.201 main 208 208 ______P__P__O_ -1 -11.9916 147.076 20 20 1006 -11.9576 147.128 TC 15 1006 -11.9000 147.400 TC 15 1006 10 239
1979043S11161 1979 12 SP EA ROSA 1979-02-15 09:00:00 TS -12.2064 146.779 main 254 254 ______P__P__P_ -1 -12.2519 146.658 20 20 1006 -12.1947 146.701 TC 15 1006 -12.1725 146.978 TC 15 1006 9 239
1979043S11161 1979 12 SP EA ROSA 1979-02-15 11:00:00 TS -12.3569 146.516 20 1006 bom main 288 288 ______O__P__P_ -1 -12.4000 146.400 20 20 1006 1.00000 -12.3369 146.430 TC 15 1006 -12.3338 146.719 TC 15 1006 45 45 9 240
1979043S11161 1979 12 SP EA ROSA 1979-02-15 12:00:00 TS -12.4170 146.399 main 294 265 ______P__O__O_ -1 -12.4510 146.296 20 20 1006 -12.4000 146.300 TC 15 1006 -12.4000 146.600 TC 15 1006 7 246
1979043S11161 1979 12 SP EA ROSA 1979-02-15 15:00:00 TS -12.5409 146.092 main 265 236 ______P__P__P_ -1 -12.5703 146.019 20 20 1006 -12.5299 145.971 TC 15 1006 -12.5224 146.285 TC 15 1006 6 250
1979043S11161 1979 12 SP EA ROSA 1979-02-15 18:00:00 TS -12.6282 145.807 main 236 209 ______P__P__O_ -1 -12.6580 145.753 20 20 1006 -12.6266 145.667 TC 15 1006 -12.6000 146.000 TC 15 1006 6 253
1979043S11161 1979 12 SP EA ROSA 1979-02-15 21:00:00 TS -12.7136 145.513 main 209 188 ______P__P__P_ -1 -12.7385 145.449 20 20 1006 -12.7100 145.354 TC 15 1006 -12.6923 145.737 TC 15 1006 6 254
1979043S11161 1979 12 SP EA ROSA 1979-02-15 23:00:00 TS -12.7763 145.284 20 1006 bom main 188 184 ______O__P__P_ -1 -12.8000 145.200 20 20 1006 1.00000 -12.7681 145.124 TC 15 1006 -12.7608 145.528 TC 15 1006 45 45 7 254
1979043S11161 1979 12 SP EA ROSA 1979-02-16 00:00:00 TS -12.8118 145.156 main 184 130 ______P__O__O_ -1 -12.8353 145.069 20 20 1005 -12.8000 145.000 TC 15 1006 -12.8000 145.400 TC 15 1006 9 255
1979043S11161 1979 12 SP EA ROSA 1979-02-16 03:00:00 TS -12.9297 144.702 main 130 73 ______P__P__P_ -1 -12.9492 144.619 20 20 1005 -12.8976 144.584 TC -12.9425 144.902 TC 17 1005 10 255
1979043S11161 1979 12 SP EA ROSA 1979-02-16 06:00:00 TS -13.0634 144.159 main 73 31 ______P__P__O_ -1 -13.0872 144.057 20 20 1005 -13.0029 144.120 TC -13.1000 144.300 TC 20 1005 12 256
1979043S11161 1979 12 SP EA ROSA 1979-02-16 08:00:00 TS -13.1608 143.748 20 1005 bom main 21 10 ______O__P__P_ -1 -13.2000 143.600 20 20 1005 1.00000 -13.0823 143.784 TC -13.2001 143.861 TC 20 1005 45 45 13 256
1979043S11161 1979 12 SP EA ROSA 1979-02-16 09:00:00 TS -13.2139 143.525 main 0 0 ______P__P__P_ -1 -13.2657 143.332 20 20 1005 -13.1258 143.608 TC -13.2501 143.635 TC 20 1005 13 256
1979043S11161 1979 12 SP EA ROSA 1979-02-16 11:00:00 TS -13.3242 143.080 20 1005 bom main 0 0 ______O__P__P_ -1 -13.4000 142.800 20 20 1005 1.00000 -13.2225 143.242 TC -13.3501 143.199 TC 20 1005 45 45 13 255
1979043S11161 1979 12 SP EA ROSA 1979-02-16 12:00:00 TS -13.3755 142.884 main 0 0 ______P__P__O_ -1 -13.4501 142.603 20 20 1005 -13.2764 143.051 TC -13.4000 143.000 TC 20 1005 10 253
1979043S11161 1979 12 SP EA ROSA 1979-02-16 15:00:00 TS -13.5232 142.396 main 0 0 ______P__P__P_ -1 -13.5707 142.182 20 20 1005 -13.4645 142.448 TC -13.5345 142.557 TC 20 1005 10 251
1979043S11161 1979 12 SP EA ROSA 1979-02-16 18:00:00 TS -13.7081 141.894 main 0 0 ______P__O__O_ -1 -13.7243 141.782 20 20 1005 -13.7000 141.800 TC 15 1006 -13.7000 142.100 TC 20 1005 11 249
1979043S11161 1979 12 SP EA ROSA 1979-02-16 19:00:00 TS -13.7893 141.683 20 1006 bom main 0 0 ______O__P__P_ -1 -13.8000 141.600 20 20 1006 1.00000 -13.7958 141.567 TC 15 1006 -13.7721 141.882 TC 19 1005 45 45 15 248
1979043S11161 1979 12 SP EA ROSA 1979-02-16 21:00:00 TS -13.9829 141.189 main 34 34 ______P__P__P_ -1 -14.0138 141.079 20 20 1006 -13.9994 141.089 TC 15 1006 -13.9354 141.400 TC 17 1005 16 248
1979043S11161 1979 12 SP EA ROSA 1979-02-16 23:30:00 TS -14.2361 140.572 20 1007 bom main 102 102 ______O__P__P_ -1 -14.3000 140.400 20 20 1007 1.00000 -14.2525 140.509 TC 15 1006 -14.1560 140.806 TC 15 1005 45 45 17 246
1979043S11161 1979 12 SP EA ROSA 1979-02-17 00:00:00 TS -14.3264 140.389 main 120 120 O_____P__OO_O_ jtwc_sh SH161979 -14.5000 140.100 25 -1 -14.3490 140.283 20 20 1006 -14.3000 140.400 TC 15 1007 -14.5000 140.100 1 -14.2000 140.700 TC 15 1006 14 246
1979043S11161 1979 12 SP EA ROSA 1979-02-17 03:00:00 TS -14.5793 139.778 main 183 183 P_____P__PP_P_ SH161979 -14.6578 139.530 25 -1 -14.6078 139.674 20 20 1006 -14.5558 139.806 TC 15 1006 -14.6419 139.557 1 -14.4647 140.212 TC 15 1006 12 248
1979043S11161 1979 12 SP EA ROSA 1979-02-17 06:00:00 TS -14.7752 139.252 main 232 187 O_____P__PP_O_ jtwc_sh SH161979 -14.8000 139.000 25 -1 -14.8129 139.197 20 20 1006 -14.7744 139.296 TC 15 1006 -14.7765 139.041 1 -14.7000 139.800 TC 15 1006 10 250
1979043S11161 1979 12 SP EA ROSA 1979-02-17 09:00:00 TS -14.9217 138.780 main 187 153 P_____P__PP_P_ SH161979 -14.9149 138.547 27 -1 -14.9739 138.817 20 20 1006 -14.9559 138.864 TC 15 1006 -14.8977 138.579 1 -14.8725 139.327 TC 15 1006 8 252
1979043S11161 1979 12 SP EA ROSA 1979-02-17 12:00:00 TS -15.0333 138.417 20 1006 bom main 153 130 O_____O__OO_O_ jtwc_sh SH161979 -15.0000 138.200 30 -1 -15.1000 138.500 20 20 1006 1.00000 -15.1000 138.500 TC 15 1006 -15.0000 138.200 1 -15.0000 138.900 TC 15 1006 45 45 7 253
1979043S11161 1979 12 SP EA ROSA 1979-02-17 15:00:00 TS -15.1167 138.122 main 130 113 P_____P__PP_P_ SH161979 -15.0499 137.962 30 -1 -15.2058 138.152 20 20 1005 -15.2065 138.152 TC 16 1005 -15.0807 137.922 1 -15.1074 138.577 TC 17 1005 5 253
1979043S11161 1979 12 SP EA ROSA 1979-02-17 18:00:00 TS -15.1851 137.894 main 113 94 O_____P__PP_O_ jtwc_sh SH161979 -15.1000 137.800 30 -1 -15.2820 137.865 20 20 1005 -15.2796 137.872 TC 17 1005 -15.1494 137.730 1 -15.2000 138.300 TC 20 1005 4 251
1979043S11161 1979 12 SP EA ROSA 1979-02-17 21:00:00 TS -15.2644 137.687 main 94 89 P_____P__PP_P_ SH161979 -15.1925 137.635 30 -1 -15.3451 137.639 20 20 1005 -15.3379 137.656 TC 18 1005 -15.2184 137.597 1 -15.3001 137.963 TC 20 1005 4 245
1979043S11161 1979 12 SP EA ROSA 1979-02-17 23:30:00 TS -15.3369 137.552 20 1005 bom main 89 84 P_____O__PP_P_ SH161979 -15.2821 137.520 30 -1 -15.4000 137.500 20 20 1005 1.00000 -15.3886 137.522 TC 19 1005 -15.2850 137.515 1 -15.3834 137.733 TC 20 1005 45 45 4 240
1979043S11161 1979 12 SP EA ROSA 1979-02-18 00:00:00 TS -15.3524 137.529 main 74 70 O_____P__OO_O_ jtwc_sh SH161979 -15.3000 137.500 30 -1 -15.4144 137.472 20 20 1004 -15.4000 137.500 TC 20 1005 -15.3000 137.500 1 -15.4000 137.700 TC 20 1005 3 230
1979043S11161 1979 12 SP EA ROSA 1979-02-18 03:00:00 TS -15.4501 137.410 main 59 46 P_____P__PP_P_ SH161979 -15.3925 137.385 30 -1 -15.5044 137.340 20 20 1004 -15.4926 137.364 TC 20 1004 -15.4187 137.372 1 -15.4999 137.612 TC 20 1004 3 222
1979043S11161 1979 12 SP EA ROSA 1979-02-18 06:00:00 TS -15.5569 137.339 main 46 35 O_____P__PP_O_ jtwc_sh SH161979 -15.5000 137.300 30 -1 -15.5994 137.270 20 20 1004 -15.5923 137.288 TC 20 1004 -15.5499 137.275 1 -15.6000 137.600 TC 20 1004 3 208
1979043S11161 1979 12 SP EA ROSA 1979-02-18 09:00:00 TS -15.6792 137.290 main 35 24 P_____P__PP_P_ SH161979 -15.6500 137.235 30 -1 -15.6983 137.258 20 20 1004 -15.6958 137.267 TC 20 1004 -15.6812 137.216 1 -15.7000 137.528 TC 20 1004 3 194
1979043S11161 1979 12 SP EA ROSA 1979-02-18 12:00:00 TS -15.8000 137.283 20 1004 bom main 24 15 O_____O__OO_O_ jtwc_sh SH161979 -15.8000 137.200 30 -1 -15.8000 137.300 20 20 1004 1.00000 -15.8000 137.300 TC 20 1004 -15.8000 137.200 1 -15.8000 137.500 TC 20 1004 45 45 2 0
1979043S11161 1979 12 SP EA ROSA 1979-02-18 15:00:00 TS -15.9143 137.303 main 15 10 P_____P__PP_P_ SH161979 -15.9150 137.170 30 -1 -15.9262 137.365 20 20 1003 -15.9243 137.354 TC 21 1003 -15.9054 137.191 1 -15.9000 137.570 TC 22 1003 2 159
1979043S11161 1979 12 SP EA ROSA 1979-02-18 18:00:00 TS -16.0149 137.378 main 11 0 O_____P__PP_O_ jtwc_sh SH161979 -16.0000 137.200 30 -1 -16.0496 137.481 20 20 1002 -16.0449 137.460 TC 22 1003 -15.9947 137.230 1 -16.0000 137.700 TC 25 1003 3 134
1979043S11161 1979 12 SP EA ROSA 1979-02-18 21:00:00 TS -16.1011 137.504 main 10 10 P_____P__PP_P_ SH161979 -16.0650 137.305 30 -1 -16.1495 137.641 20 20 1002 -16.1430 137.610 TC 23 1002 -16.0616 137.329 1 -16.1225 137.835 TC 25 1002 3 116
1979043S11161 1979 12 SP EA ROSA 1979-02-18 23:30:00 TS -16.1460 137.654 20 1002 bom main 11 11 P_____O__PP_P_ SH161979 -16.0962 137.461 30 -1 -16.2000 137.800 20 20 1002 1.00000 -16.1942 137.766 TC 24 1002 -16.0958 137.466 1 -16.1934 137.970 TC 25 1002 45 45 4 106
1979043S11161 1979 12 SP EA ROSA 1979-02-19 00:00:00 TS -16.1507 137.689 main 0 0 O_____P__OO_O_ jtwc_sh SH161979 -16.1000 137.500 30 -1 -16.2042 137.833 20 20 1001 -16.2000 137.800 TC 25 1002 -16.1000 137.500 1 -16.2000 138.000 TC 25 1002 5 91
1979043S11161 1979 12 SP EA ROSA 1979-02-19 03:00:00 TS -16.1519 137.927 main 21 21 P_____P__PP_P_ SH161979 -16.1150 137.770 30 -1 -16.1996 138.051 20 20 1001 -16.1973 138.022 TC 26 1001 -16.1122 137.765 1 -16.1725 138.185 TC 27 1001 5 86
1979043S11161 1979 12 SP EA ROSA 1979-02-19 06:00:00 TS -16.1170 138.212 main 54 54 O_____P__PP_O_ jtwc_sh SH161979 -16.1000 138.100 30 -1 -16.1541 138.296 20 20 1000 -16.1527 138.278 TC 27 1000 -16.0955 138.098 1 -16.1000 138.400 TC 30 1000 6 81
1979043S11161 1979 12 SP EA ROSA 1979-02-19 09:00:00 TS -16.0667 138.519 main 77 77 P_____P__PP_P_ SH161979 -16.0650 138.458 30 -1 -16.0826 138.551 20 20 999 -16.0817 138.544 TC 28 999 -16.0560 138.456 1 -16.0500 138.650 TC 30 999 6 79
1979043S11161 1979 12 SP EA ROSA 1979-02-19 12:00:00 TS -16.0000 138.817 20 999 bom main 92 92 O_____O__OO_O_ jtwc_sh SH161979 -16.0000 138.800 30 -1 -16.0000 138.800 20 20 999 1.00000 -16.0000 138.800 TC 30 999 -16.0000 138.800 1 -16.0000 138.900 TC 30 999 45 45 5 74
1979043S11161 1979 12 SP EA ROSA 1979-02-19 15:00:00 TS -15.9143 139.065 main 112 112 P_____P__PP_P_ SH161979 -15.8999 139.065 30 -1 -15.9061 139.031 20 20 999 -15.9078 139.027 TC 30 999 -15.9150 139.100 1 -15.9574 139.100 TC 30 999 5 69
1979043S11161 1979 12 SP EA ROSA 1979-02-19 18:00:00 TS -15.8236 139.294 main 127 127 O_____P__PP_O_ jtwc_sh SH161979 -15.8000 139.300 30 -1 -15.8090 139.251 20 20 999 -15.8124 139.238 TC 30 999 -15.8200 139.375 1 -15.9000 139.300 TC 30 999 5 69
1979043S11161 1979 12 SP EA ROSA 1979-02-19 21:00:00 TS -15.7413 139.532 main 144 144 P_____P__PP_P_ SH161979 -15.7275 139.565 30 -1 -15.7320 139.452 20 20 999 -15.7359 139.430 TC 30 999 -15.7400 139.613 1 -15.7851 139.565 TC 30 999 5 73
1979043S11161 1979 12 SP EA ROSA 1979-02-19 23:30:00 TS -15.7023 139.707 20 1000 bom main 153 153 P_____O__PP_P_ SH161979 -15.7004 139.765 30 -1 -15.7000 139.600 20 20 1000 1.00000 -15.7022 139.573 TC 30 999 -15.7028 139.773 1 -15.7079 139.767 TC 30 999 45 45 4 78
1979043S11161 1979 12 SP EA ROSA 1979-02-20 00:00:00 TS -15.7001 139.738 main 153 153 O_____P__OO_O_ jtwc_sh SH161979 -15.7000 139.800 30 -1 -15.7005 139.631 20 20 1000 -15.7000 139.600 TC 30 1000 -15.7000 139.800 1 -15.7000 139.800 TC 30 1000 3 98
1979043S11161 1979 12 SP EA ROSA 1979-02-20 03:00:00 TS -15.7287 139.903 main 162 150 P_____P__PP_P_ SH161979 -15.7275 139.987 30 -1 -15.7338 139.802 20 20 1000 -15.7318 139.775 TC 30 1000 -15.7317 139.949 1 -15.7199 139.915 TC 30 1000 3 111
1979043S11161 1979 12 SP EA ROSA 1979-02-20 06:00:00 TS -15.8027 140.019 main 150 139 O_____P__PP_O_ jtwc_sh SH161979 -15.8000 140.100 30 -1 -15.8065 139.944 20 20 1000 -15.8050 139.925 TC 30 1000 -15.8048 140.047 1 -15.8000 140.000 TC 30 1000 3 131
1979043S11161 1979 12 SP EA ROSA 1979-02-20 09:00:00 TS -15.9004 140.102 main 139 135 P_____P__PP_P_ SH161979 -15.9000 140.130 30 -1 -15.9011 140.047 20 20 1000 -15.9006 140.037 TC 30 1000 -15.9005 140.096 1 -15.9000 140.172 TC 30 1000 2 150
1979043S11161 1979 12 SP EA ROSA 1979-02-20 12:00:00 TS -16.0000 140.133 20 1000 bom main 135 132 O_____O__OO_O_ jtwc_sh SH161979 -16.0000 140.100 30 -1 -16.0000 140.100 20 20 1000 1.00000 -16.0000 140.100 TC 30 1000 -16.0000 140.100 1 25 -16.0000 140.300 TC 30 1000 45 45 2 0
1979043S11161 1979 12 SP EA ROSA 1979-02-20 15:00:00 TS -16.0748 140.121 main 132 132 P_____P__PP_P_ SH161979 -16.0500 140.065 32 -1 -16.1003 140.109 20 20 1000 -16.0993 140.117 TC 30 1000 -16.0993 140.089 1 -16.0500 140.280 TC 30 1000 2 205
1979043S11161 1979 12 SP EA ROSA 1979-02-20 18:00:00 TS -16.1479 140.064 main 132 123 O_____P__PP_O_ jtwc_sh SH161979 -16.1000 140.000 35 0 -16.1974 140.069 20 20 1000 -16.1949 140.083 TC 30 1000 -16.1949 140.033 1 -16.1000 140.200 TC 30 1000 2 217
1979043S11161 1979 12 SP EA ROSA 1979-02-20 21:00:00 TS -16.2420 139.990 main 123 108 P_____P__PP_P_ SH161979 -16.2150 139.923 35 0 -16.2710 139.989 20 20 1000 -16.2681 140.007 TC 30 1000 -16.2680 139.936 1 -16.2150 140.165 TC 30 1000 2 227
1979043S11161 1979 12 SP EA ROSA 1979-02-20 23:30:00 TS -16.2955 139.902 20 1000 bom main 108 108 P_____O__PP_P_ SH161979 -16.2921 139.825 35 0 -16.3000 139.900 20 20 1000 1.00000 -16.2983 139.920 TC 30 1000 -16.2983 139.825 1 -16.2922 140.115 TC 30 1000 45 45 2 241
1979043S11161 1979 12 SP EA ROSA 1979-02-21 00:00:00 TS -16.3001 139.881 main 108 94 O_____P__OO_O_ jtwc_sh SH161979 -16.3000 139.800 35 0 -16.3007 139.884 20 20 1000 -16.3000 139.900 TC 30 1000 -16.3000 139.800 1 -16.3000 140.100 TC 30 1000 3 276
1979043S11161 1979 12 SP EA ROSA 1979-02-21 03:00:00 TS -16.2782 139.727 main 94 89 P_____P__PP_P_ SH161979 -16.2800 139.615 37 0 -16.2763 139.769 20 20 1000 -16.2763 139.783 TC 28 1000 -16.2764 139.615 1 -16.2800 139.965 TC 30 1000 3 286
1979043S11161 1979 12 SP EA ROSA 1979-02-21 06:00:00 TS -16.2051 139.544 main 94 89 O_____P__PP_O_ jtwc_sh SH161979 -16.2000 139.400 40 0 -16.2106 139.630 20 20 1001 -16.2100 139.637 TC 27 1001 -16.2103 139.400 1 -16.2000 139.800 TC 30 1000 4 295
1979043S11161 1979 12 SP EA ROSA 1979-02-21 09:00:00 TS -16.1108 139.358 main 99 95 P_____P__PP_P_ SH161979 -16.1075 139.185 45 0 -16.1147 139.471 20 20 1001 -16.1138 139.473 TC 26 1001 -16.1139 139.184 1 -16.1075 139.650 TC 27 1000 4 301
1979043S11161 1979 12 SP EA ROSA 1979-02-21 12:00:00 TS -16.0000 139.183 20 1002 bom main 102 101 O_____O__OO_O_ jtwc_sh SH161979 -16.0000 139.000 50 0 -16.0000 139.300 20 20 1002 1.00000 -16.0000 139.300 TC 25 1002 -16.0000 139.000 1 30 -16.0000 139.500 TC 25 1001 45 45 4 305
1979043S11161 1979 12 SP EA ROSA 1979-02-21 15:00:00 TS -15.9020 139.047 main 109 109 P_____P__PP_P_ SH161979 -15.9075 138.878 57 0 -15.8951 139.129 20 20 1002 -15.9015 139.136 TC 25 1002 -15.8933 138.905 1 -15.9075 139.358 TC 25 1001 3 310
1979043S11161 1979 12 SP EA ROSA 1979-02-21 18:00:00 TS -15.7887 138.926 main 116 116 O_____P__PP_O_ jtwc_sh SH161979 -15.8000 138.800 65 1 -15.7724 138.948 20 20 1002 -15.7874 138.965 TC 25 1002 -15.7723 138.843 1 -15.8000 139.200 TC 25 1002 3 318
1979043S11161 1979 12 SP EA ROSA 1979-02-21 21:00:00 TS -15.6510 138.811 main 124 124 P_____P__PP_P_ SH161979 -15.6575 138.765 75 1 -15.6315 138.760 20 20 1002 -15.6546 138.786 TC 25 1002 -15.6402 138.784 1 -15.6650 139.008 TC 25 1002 4 322
1979043S11161 1979 12 SP EA ROSA 1979-02-21 23:30:00 TS -15.5222 138.703 20 1002 bom main 132 132 P_____O__PP_P_ SH161979 -15.5262 138.717 83 2 -15.5000 138.600 20 20 1002 1.00000 -15.5274 138.632 TC 25 1002 -15.5238 138.717 1 -15.5296 138.835 TC 25 1002 45 45 4 320
1979043S11161 1979 12 SP EA ROSA 1979-02-22 00:00:00 TS -15.4955 138.677 main 132 123 O_____P__OO_O_ jtwc_sh SH161979 -15.5000 138.700 85 2 -15.4728 138.564 20 20 1001 -15.5000 138.600 TC 25 1002 -15.5000 138.700 1 -15.5000 138.800 TC 25 1002 5 311
1979043S11161 1979 12 SP EA ROSA 1979-02-22 03:00:00 TS -15.3339 138.477 main 132 125 P_____P__PP_P_ SH161979 -15.3500 138.515 90 2 -15.2972 138.342 20 20 1001 -15.3206 138.373 TC 26 1001 -15.3858 138.525 1 -15.3000 138.592 TC 25 1001 5 310
1979043S11161 1979 12 SP EA ROSA 1979-02-22 06:00:00 TS -15.1643 138.266 main 129 129 O_____P__PP_O_ jtwc_sh SH161979 -15.2000 138.300 95 2 -15.1053 138.124 20 20 1001 -15.1206 138.145 TC 27 1001 -15.2602 138.327 1 -15.1000 138.400 TC 25 1001 5 311
1979043S11161 1979 12 SP EA ROSA 1979-02-22 09:00:00 TS -15.0048 138.083 main 140 121 P_____P__PP_P_ SH161979 -15.0800 138.120 95 2 -14.9039 137.936 20 20 1001 -14.9103 137.944 TC 28 1001 -15.1045 138.141 1 -14.9500 138.235 TC 25 1001 5 319
1979043S11161 1979 12 SP EA ROSA 1979-02-22 12:00:00 TS -14.8167 137.950 20 1001 bom main 121 102 O_____O__OO_O_ jtwc_sh SH161979 -14.9000 138.000 95 2 -14.7000 137.800 20 20 1001 1.00000 -14.7000 137.800 TC 30 1001 -14.9000 138.000 1 -14.8000 138.100 TC 25 1001 45 45 5 336
1979043S11161 1979 12 SP EA ROSA 1979-02-22 15:00:00 TS -14.5604 137.878 main 102 97 P_____P__PP_P_ SH161979 -14.5725 137.978 87 2 -14.5225 137.700 20 20 1000 -14.5163 137.703 TC 30 1000 -14.5562 137.958 1 -14.6225 137.955 TC 27 1000 6 353
1979043S11161 1979 12 SP EA ROSA 1979-02-22 18:00:00 TS -14.2625 137.877 20 999 bom main 97 97 O_____O__OP_O_ jtwc_sh SH161979 -14.2000 138.000 80 1 -14.3000 137.700 20 20 999 1.00000 -14.3000 137.700 TC 30 999 -14.1749 137.963 1 -14.4000 137.900 TC 30 999 45 45 7 6
1979043S11161 1979 12 SP EA ROSA 1979-02-22 21:00:00 TS -13.9134 137.945 main 106 106 P_____P__PP_P_ SH161979 -13.8400 138.008 70 1 -13.9440 137.822 20 20 999 -13.9550 137.828 TC 30 999 -13.8312 137.986 1 -14.0700 138.020 TC 30 999 6 14
1979043S11161 1979 12 SP EA ROSA 1979-02-22 23:30:00 TS -13.6894 138.025 20 999 bom main 119 119 P_____O__PP_P_ SH161979 -13.6253 138.003 61 0 -13.7000 138.000 20 20 999 1.00000 -13.7256 137.973 TC 30 999 -13.6275 138.000 1 -13.8324 138.172 TC 30 999 45 45 5 21
1979043S11161 1979 12 SP EA ROSA 1979-02-23 00:00:00 TS -13.6604 138.042 main 119 119 O_____P__OO_O_ jtwc_sh SH161979 -13.6000 138.000 60 0 -13.6625 138.050 20 20 999 -13.7000 138.000 TC 30 999 -13.6000 138.000 1 -13.8000 138.200 TC 30 999 2 62
1979043S11161 1979 12 SP EA ROSA 1979-02-23 03:00:00 TS -13.6406 138.118 25 999 bom main 131 129 P_____O__PP_P_ SH161979 -13.5825 137.958 55 0 -13.6000 138.300 20 25 999 1.50000 -13.7400 138.167 TC 30 999 -13.6063 137.969 1 -13.7325 138.360 TC 30 999 45 45 1 166
1979043S11161 1979 12 SP EA ROSA 1979-02-23 06:00:00 TS -13.7875 138.087 25 999 bom main 129 106 O_____O__OP_O_ jtwc_sh SH161979 -13.7000 137.900 50 0 -13.9000 138.200 20 25 999 1.50000 -13.9000 138.200 TC 30 999 -13.7250 137.923 1 -13.8000 138.400 TC 30 999 45 45 4 210
1979043S11161 1979 12 SP EA ROSA 1979-02-23 09:00:00 TS -13.9519 137.935 main 102 92 P_____P__PP_P_ SH161979 -13.8725 137.858 47 0 -14.0751 137.914 20 25 998 -14.0377 137.930 TC 32 998 -13.8812 137.865 1 -13.9726 138.188 TC 32 998 4 231
1979043S11161 1979 12 SP EA ROSA 1979-02-23 12:00:00 TS -14.0500 137.750 25 998 bom main 92 72 O_____O__OO_O_ jtwc_sh SH161979 -14.0000 137.800 45 0 -14.1000 137.600 20 25 998 1.50000 -14.1000 137.600 TC 35 998 -14.0000 137.800 1 30 -14.1000 137.900 TC 35 998 45 45 3 270
1979043S11161 1979 12 SP EA ROSA 1979-02-23 15:00:00 TS -13.9525 137.622 main 72 64 P_____P__PP_P_ SH161979 -13.9300 137.700 42 0 -13.9720 137.455 20 25 998 -13.9724 137.455 TC 35 998 -13.9306 137.708 1 -13.9800 137.712 TC 35 998 3 320
1979043S11161 1979 12 SP EA ROSA 1979-02-23 18:00:00 TS -13.8033 137.535 25 998 bom main 64 64 O_____O__OP_O_ jtwc_sh SH161979 -13.8000 137.600 40 0 -13.8000 137.400 20 25 998 1.50000 -13.8000 137.400 TC 35 998 -13.8200 137.612 1 -13.8000 137.600 TC 35 998 45 45 3 330
1979043S11161 1979 12 SP EA ROSA 1979-02-23 21:00:00 TS -13.7263 137.487 main 65 65 P_____P__PP_P_ SH161979 -13.7050 137.528 37 0 -13.7384 137.381 20 25 997 -13.7425 137.378 TC 35 997 -13.7244 137.536 1 -13.7425 137.570 TC 35 997 1 331
1979043S11161 1979 12 SP EA ROSA 1979-02-23 23:30:00 TS -13.6993 137.482 25 997 bom main 65 65 P_____O__PP_P_ SH161979 -13.6903 137.500 35 0 -13.7000 137.400 20 25 997 2.00000 -13.7092 137.394 TC 35 997 -13.6967 137.502 1 -13.7092 137.593 TC 35 997 45 45 1 317
1979043S11161 1979 12 SP EA ROSA 1979-02-24 00:00:00 TS -13.6973 137.484 main 65 65 O_____P__OO_O_ jtwc_sh SH161979 -13.7000 137.500 35 0 -13.6840 137.402 20 25 996 -13.7000 137.400 TC 35 997 -13.7000 137.500 1 -13.7000 137.600 TC 35 997 1 117
1979043S11161 1979 12 SP EA ROSA 1979-02-24 03:00:00 TS -13.7170 137.516 main 65 65 P_____P__PP_P_ SH161979 -13.8625 137.528 35 0 -13.5741 137.428 20 27 996 -13.5850 137.428 TC 35 996 -13.8332 137.548 1 -13.5850 137.635 TC 35 996 1 133
1979043S11161 1979 12 SP EA ROSA 1979-02-24 06:00:00 TS -13.7900 137.589 30 996 bom main 75 75 O_____O__OP_O_ jtwc_sh SH161979 -14.1000 137.600 35 0 -13.5000 137.500 20 30 996 2.50000 -13.5000 137.500 TC 35 996 -14.0401 137.635 1 -13.5000 137.700 TC 35 996 45 45 3 133
1979043S11161 1979 12 SP EA ROSA 1979-02-24 09:00:00 TS -13.8877 137.702 main 87 87 P_____P__PP_P_ SH161979 -14.3075 137.707 35 0 -13.4765 137.643 20 30 996 -13.4750 137.643 TC 35 996 -14.2769 137.729 1 -13.4825 137.785 TC 35 996 3 140
1979043S11161 1979 12 SP EA ROSA 1979-02-24 12:00:00 TS -14.0500 137.817 30 996 bom main 92 89 O_____O__OO_O_ jtwc_sh SH161979 -14.5000 137.800 35 0 -13.6000 137.800 20 30 996 2.50000 -13.6000 137.800 TC 35 996 -14.5000 137.800 2 35 -13.6000 137.900 TC 35 996 45 45 5 155
1979043S11161 1979 12 SP EA ROSA 1979-02-24 15:00:00 TS -14.3045 137.901 main 97 97 P_____P__PP_P_ SH161979 -14.6650 137.823 -1 -13.9595 137.932 20 30 996 -13.9625 137.930 TC 35 996 -14.6627 137.828 2 38 -13.9125 138.072 TC 35 996 6 167
1979043S11161 1979 12 SP EA ROSA 1979-02-24 18:00:00 TS -14.5837 137.938 30 996 bom main 102 102 O_____O__OP_O_ jtwc_sh SH161979 -14.8000 137.800 -1 -14.4000 138.000 20 30 996 2.50000 -14.4000 138.000 TC 35 996 -14.8024 137.825 2 42 -14.3000 138.200 TC 35 996 45 45 5 0
1979043S11161 1979 12 SP EA ROSA 1979-02-24 21:00:00 TS -14.8207 137.908 main 111 111 P_____P__PP_P_ SH161979 -14.9225 137.773 -1 -14.7736 137.964 20 35 994 -14.7525 137.973 TC 37 995 -14.9158 137.784 2 46 -14.6375 138.180 TC 37 995 4 193
1979043S11161 1979 12 SP EA ROSA 1979-02-24 23:30:00 TS -14.9674 137.846 40 994 bom main 116 116 P_____O__PP_P_ SH161979 -14.9913 137.716 -1 -15.0000 137.900 30 40 994 3.00000 -14.9692 137.912 TC 39 994 -14.9881 137.717 2 49 -14.8646 138.113 TC 39 994 55 55 4 203
1979043S11161 1979 12 SP EA ROSA 1979-02-25 00:00:00 TS -14.9881 137.832 main 116 116 O_____P__OO_O_ jtwc_sh SH161979 -15.0000 137.700 -1 -15.0283 137.893 30 40 993 -15.0000 137.900 TC 40 994 -15.0000 137.700 2 50 -14.9000 138.100 TC 40 994 2 229
1979043S11161 1979 12 SP EA ROSA 1979-02-25 03:00:00 TS -15.0490 137.746 main 108 108 P_____P__PP_P_ SH161979 -15.0075 137.572 -1 -15.1000 137.854 30 45 991 -15.0875 137.857 TC 42 992 -15.0539 137.560 2 58 -15.0375 138.057 TC 42 992 2 249
1979043S11161 1979 12 SP EA ROSA 1979-02-25 06:00:00 TS -15.0634 137.630 50 990 bom main 109 104 O_____O__OP_O_ jtwc_sh SH161979 -15.0000 137.400 -1 -15.1000 137.800 30 50 990 3.50000 -15.1000 137.800 TC 45 990 -15.0802 137.380 2 67 -15.1000 138.000 TC 45 990 69 69 3 255
1979043S11161 1979 12 SP EA ROSA 1979-02-25 09:00:00 TS -15.1156 137.486 main 104 95 P_____P__PP_P_ SH161979 -15.0500 137.193 -1 -15.1646 137.715 30 55 986 -15.1650 137.715 TC 50 986 -15.0914 137.185 2 76 -15.1725 137.915 TC 50 987 3 253
1979043S11161 1979 12 SP EA ROSA 1979-02-25 12:00:00 TS -15.1500 137.333 60 983 bom main 95 90 O_____O__OO_O_ jtwc_sh SH161979 -15.1000 137.000 -1 -15.2000 137.600 30 60 983 4.00000 -15.2000 137.600 TC 55 983 -15.1000 137.000 4 85 -15.2000 137.800 TC 55 984 84 84 3 268
1979043S11161 1979 12 SP EA ROSA 1979-02-25 15:00:00 TS -15.1254 137.217 main 92 89 P_____P__PP_P_ SH161979 -15.1000 136.892 -1 -15.1483 137.485 30 67 979 -15.1499 137.480 TC 60 979 -15.1045 136.881 4 87 -15.1500 137.672 TC 60 980 3 281
1979043S11161 1979 12 SP EA ROSA 1979-02-25 18:00:00 TS -15.1020 137.079 75 975 bom main 89 79 O_____O__OP_O_ jtwc_sh SH161979 -15.1000 136.800 -1 -15.1000 137.300 40 75 975 4.50000 -15.1000 137.300 TC 65 975 -15.1123 136.772 4 90 -15.1000 137.500 TC 65 976 104 104 3 269
1979043S11161 1979 12 SP EA ROSA 1979-02-25 21:00:00 TS -15.1309 136.886 main 79 58 P_____P__PP_P_ SH161979 -15.1350 136.672 -1 -15.1294 136.995 40 77 969 -15.1200 137.037 TC 72 970 -15.1389 136.653 4 92 -15.1274 137.287 TC 72 970 4 257
1979043S11161 1979 12 SP EA ROSA 1979-02-25 23:30:00 TS -15.1882 136.685 80 965 bom main 58 58 P_____O__PP_P_ SH161979 -15.1871 136.533 -1 -15.2000 136.700 40 80 965 5.00000 -15.1825 136.760 TC 78 965 -15.1868 136.529 4 94 -15.1858 137.054 TC 78 965 110 110 5 253
1979043S11161 1979 12 SP EA ROSA 1979-02-26 00:00:00 TS -15.2029 136.642 main 48 24 O_____P__OO_O_ jtwc_sh SH161979 -15.2000 136.500 -1 -15.2173 136.649 40 80 963 -15.2000 136.700 TC 80 965 -15.2000 136.500 4 95 -15.2000 137.000 TC 80 965 6 249
1979043S11161 1979 12 SP EA ROSA 1979-02-26 03:00:00 TS -15.3091 136.353 main 24 15 P_____P__PP_P_ SH161979 -15.2775 136.265 -1 -15.3501 136.328 40 83 957 -15.3424 136.338 TC 72 970 -15.3223 136.286 4 86 -15.2849 136.637 TC 80 965 6 249
1979043S11161 1979 12 SP EA ROSA 1979-02-26 04:00:00 TS -15.3521 136.244 85 955 bom main 0 0 P_____O__PP_P_ SH161979 -15.3121 136.177 -1 -15.4000 136.200 40 85 955 5.00000 4 -15.3969 136.201 TC 70 971 -15.3714 136.206 4 83 -15.3199 136.499 TC 80 965 119 119 7 248
1979043S11161 1979 12 SP EA ROSA 1979-02-26 06:00:00 TS -15.4463 136.006 80 975 bom main 0 0 O_____O__OP_O_ jtwc_sh SH161979 -15.4000 136.000 -1 -15.5000 135.900 40 80 975 5.00000 -15.5000 135.900 TC 65 975 -15.4776 136.038 4 77 -15.4000 136.200 TC 80 965 110 110 8 248
1979043S11161 1979 12 SP EA ROSA 1979-02-26 09:00:00 TS -15.6014 135.610 main 0 0 P_____P__PP_P_ SH161979 -15.6075 135.750 -1 -15.6056 135.352 40 70 980 -15.6011 135.347 TC 60 980 -15.6441 135.771 4 68 -15.5426 135.693 TC 70 974 8 248
1979043S11161 1979 12 SP EA ROSA 1979-02-26 12:00:00 TS -15.7500 135.217 60 985 bom main 0 0 O_____O__OO_O_ jtwc_sh SH161979 -15.8000 135.500 -1 -15.7000 134.800 30 60 985 -15.7000 134.800 TC 55 985 -15.8000 135.500 2 60 -15.7000 135.200 TC 60 983 84 84 7 249
1979043S11161 1979 12 SI WA ROSA 1979-02-26 15:00:00 TS -15.8570 134.917 main 0 0 P_____P__PP_P_ SH161979 -15.8575 135.250 -1 -15.8557 134.423 30 57 986 -15.8482 134.431 TC 52 986 -15.8808 135.330 2 53 -15.8424 134.820 TC 52 985 6 248
1979043S11161 1979 12 SI WA ROSA 1979-02-26 18:00:00 TS -15.9702 134.660 main 0 0 O_____P__PP_O_ jtwc_sh SH161979 -15.9000 135.000 -1 -16.0428 134.145 30 54 987 -16.0251 134.164 TC 50 987 -15.9531 135.148 2 47 -16.0000 134.500 TC 45 987 5 241
1979043S11161 1979 12 SI WA ROSA 1979-02-26 21:00:00 TS -16.1215 134.427 main 0 0 P_____P__PP_P_ SH161979 -16.0121 134.810 -1 -16.2411 133.908 30 52 988 -16.2144 133.941 TC 47 988 -16.0490 134.892 2 41 -16.1999 134.200 TC 40 988 6 236
1979043S11161 1979 12 SI WA ROSA 1979-02-26 23:30:00 TS -16.2722 134.185 50 990 bom main 0 0 P_____O__PP_P_ SH161979 -16.1624 134.568 -1 -16.4000 133.700 30 50 990 -16.3700 133.744 TC 45 989 -16.1697 134.577 2 36 -16.3688 133.952 TC 35 988 69 69 7 238
1979043S11161 1979 12 SI WA ROSA 1979-02-27 00:00:00 TS -16.3039 134.125 main 0 0 O_____P__OO_O_ jtwc_sh SH161979 -16.2000 134.500 -1 -16.4234 133.653 30 49 990 -16.4000 133.700 TC 45 990 -16.2000 134.500 2 35 -16.4000 133.900 TC 35 989 9 244
1979043S11161 1979 12 SI WA ROSA 1979-02-27 03:00:00 TS -16.5081 133.679 main 0 0 P_____P__PP_P_ SH161979 -16.4774 133.940 -1 -16.5517 133.365 30 47 991 -16.5362 133.398 TC 43 991 -16.4481 133.875 2 -16.5575 133.557 TC 32 990 10 246
1979043S11161 1979 12 SI WA ROSA 1979-02-27 06:00:00 TS -16.7324 133.137 main 0 0 O_____P__PP_O_ jtwc_sh SH161979 -16.8000 133.200 -1 -16.6756 133.046 30 44 992 -16.6689 133.061 TC 42 992 -16.7497 133.114 2 -16.7000 133.200 TC 30 991 12 248
1979043S11161 1979 12 SI WA ROSA 1979-02-27 09:00:00 TS -16.9577 132.537 main 0 0 P_____P__PP_P_ SH161979 -17.1003 132.350 -1 -16.8176 132.668 30 42 993 -16.8172 132.669 TC 41 993 -17.0762 132.296 2 -16.8347 132.887 TC 27 992 13 248
1979043S11161 1979 12 SI WA ROSA 1979-02-27 12:00:00 TS -17.2000 131.900 40 994 bom main 0 0 O_____O__OO_O_ jtwc_sh SH161979 -17.4000 131.500 -1 -17.0000 132.200 30 40 994 -17.0000 132.200 TC 40 994 -17.4000 131.500 1 -17.0000 132.500 TC 25 993 55 55 13 247
1979043S11161 1979 12 SI WA ROSA 1979-02-27 15:00:00 TS -17.4803 131.261 main 0 0 P_____P__PP_P_ SH161979 -17.7070 130.812 -1 -17.2759 131.585 30 37 995 -17.2642 131.614 TC 38 995 -17.7004 130.787 1 -17.2275 131.952 TC 25 994 14 245
1979043S11161 1979 12 SI WA ROSA 1979-02-27 18:00:00 TS -17.7703 130.616 main 0 0 O_____P__PP_O_ jtwc_sh SH161979 -18.0000 130.200 -1 -17.5840 130.889 30 34 996 -17.5586 130.954 TC 37 996 -17.9792 130.150 1 -17.5000 131.300 TC 25 995 13 245
1979043S11161 1979 12 SI WA ROSA 1979-02-27 21:00:00 TS -18.0245 130.020 main 0 0 P_____P__PP_P_ SH161979 -18.2605 129.600 -1 -17.8843 130.171 30 32 997 -17.8485 130.267 TC 36 997 -18.2436 129.563 1 -17.8226 130.593 TC 25 996 12 247
1979043S11161 1979 12 SI WA ROSA 1979-02-27 23:30:00 TS -18.2031 129.547 30 998 bom main 0 0 P_____O__PP_P_ SH161979 -18.4607 129.100 -1 -18.1000 129.600 20 30 998 -18.0622 129.708 TC 35 997 -18.4575 129.093 1 -18.0622 130.009 TC 25 996 45 45 10 250
1979043S11161 1979 12 SI WA ROSA 1979-02-28 00:00:00 TS -18.1884 129.534 main 0 0 O_____P__OO_O_ jtwc_sh SH161979 -18.5000 129.000 -1 -18.1315 129.501 20 30 998 -18.1000 129.600 TC 35 998 -18.5000 129.000 6 -18.1000 129.900 TC 25 997 7 263
1979043S11161 1979 12 SI WA ROSA 1979-02-28 03:00:00 TS -18.2570 129.097 main 0 0 ______P__P__P_ SH161979 -1 -18.2858 128.943 20 30 998 -18.2631 129.020 TC 33 998 6 -18.2221 129.327 TC 25 997 9 259
1979043S11161 1979 12 SI WA ROSA 1979-02-28 06:00:00 TS -18.3617 128.564 main 0 0 ______P__P__O_ -1 -18.3988 128.422 20 30 998 -18.3863 128.469 TC 32 998 6 -18.3000 128.800 TC 25 998 10 258
1979043S11161 1979 12 SI WA ROSA 1979-02-28 09:00:00 TS -18.4763 128.035 main 0 0 ______P__P__P_ -1 -18.4954 127.916 20 30 998 -18.4914 127.933 TC 31 998 6 -18.4423 128.257 TC 25 998 10 257
1979043S11161 1979 12 SI WA ROSA 1979-02-28 12:00:00 TS -18.6000 127.500 30 999 bom main 0 0 ______O__O__O_ -1 -18.6000 127.400 20 30 999 -18.6000 127.400 TC 30 999 -18.6000 127.700 TC 25 998 45 45 11 256
1979043S11161 1979 12 SI WA ROSA 1979-02-28 15:00:00 TS -18.7553 126.896 main 0 0 ______P__P__P_ -1 -18.7607 126.786 20 28 998 -18.7553 126.802 TC 31 998 -18.7499 127.100 TC 25 998 12 255
1979043S11161 1979 12 SI WA ROSA 1979-02-28 18:00:00 TS -18.9146 126.294 main 0 0 ______P__P__O_ -1 -18.9281 126.171 20 27 998 -18.9156 126.211 TC 32 998 -18.9000 126.500 TC 25 998 12 254
1979043S11161 1979 12 SI WA ROSA 1979-02-28 21:00:00 TS -19.0731 125.721 main 0 0 ______P__P__P_ -1 -19.0863 125.602 20 26 998 -19.0680 125.664 TC 33 998 -19.0651 125.898 TC 22 998 11 254
1979043S11161 1979 12 SI WA ROSA 1979-02-28 23:30:00 TS -19.1872 125.313 25 998 bom main 0 0 ______O__P__P_ -1 -19.2000 125.200 20 25 998 -19.1799 125.270 TC 34 998 -19.1817 125.470 TC 20 998 45 45 9 254
1979043S11161 1979 12 SI WA ROSA 1979-03-01 00:00:00 TS -19.2061 125.246 main 0 0 ______P__O__O_ -1 -19.2182 125.138 20 25 998 -19.2000 125.200 TC 35 998 -19.2000 125.400 TC 20 998 6 254
1979043S11161 1979 12 SI WA ROSA 1979-03-01 03:00:00 TS -19.2877 124.943 main 0 0 ______P__P__P_ -1 -19.3107 124.837 20 25 998 -19.2953 124.888 TC 33 998 -19.2572 125.105 TC 20 998 5 254
1979043S11161 1979 12 SI WA ROSA 1979-03-01 06:00:00 TS -19.3510 124.724 main 0 0 ______P__P__O_ -1 -19.3821 124.619 20 25 998 -19.3709 124.654 TC 32 998 -19.3000 124.900 TC 20 998 4 251
1979043S11161 1979 12 SI WA ROSA 1979-03-01 09:00:00 TS -19.4260 124.514 main 0 0 ______P__P__P_ -1 -19.4420 124.426 20 25 998 -19.4361 124.444 TC 31 998 -19.3999 124.673 TC 20 998 5 251
1979043S11161 1979 12 SI WA ROSA 1979-03-01 12:00:00 TS -19.5000 124.267 25 999 bom main 0 0 ______O__O__O_ -1 -19.5000 124.200 20 25 999 -19.5000 124.200 TC 30 999 -19.5000 124.400 TC 20 998 45 45 6 257
1979043S11161 1979 12 SI WA ROSA 1979-03-01 15:00:00 TS -19.5553 123.922 main 0 0 ______P__P__P_ -1 -19.5532 123.885 20 25 999 -19.5625 123.867 TC 30 999 -19.5501 124.015 TC 20 998 7 261
1979043S11161 1979 12 SI WA ROSA 1979-03-01 18:00:00 TS -19.6114 123.539 main 0 0 ______P__P__O_ -1 -19.6071 123.526 20 25 999 -19.6270 123.489 TC 30 1000 -19.6000 123.600 TC 20 999 7 259
1979043S11161 1979 12 SI WA ROSA 1979-03-01 21:00:00 TS -19.6894 123.153 main 0 0 ______P__P__P_ -1 -19.6731 123.121 20 25 1000 -19.7030 123.067 TC 30 1000 -19.6922 123.272 TC 20 999 8 257
1979043S11161 1979 12 SI WA ROSA 1979-03-02 00:00:00 TS -19.7876 122.721 main 0 0 ______P__O__O_ -1 -19.7628 122.664 20 25 1000 -19.8000 122.600 TC 30 1001 -19.8000 122.900 TC 20 1000 9 257
1979043S11161 1979 12 SI WA ROSA 1979-03-02 01:00:00 TS -19.8236 122.557 25 1001 bom main 0 0 ______O__P__P_ -1 -19.8000 122.500 20 25 1001 -19.8401 122.431 TC 30 1000 -19.8308 122.739 TC 20 1000 45 45 10 257
1979043S11161 1979 12 SI WA ROSA 1979-03-02 03:00:00 TS -19.9040 122.197 main 0 0 ______P__P__P_ -1 -19.8905 122.139 20 25 1000 -19.9289 122.073 TC 30 1000 -19.8926 122.380 TC 20 1000 11 256
1979043S11161 1979 12 SI WA ROSA 1979-03-02 06:00:00 TS -20.0424 121.621 main 0 0 ______P__P__O_ -1 -20.0489 121.556 20 25 1000 -20.0782 121.508 TC 30 1000 -20.0000 121.800 TC 20 1000 11 255
1979043S11161 1979 12 SI WA ROSA 1979-03-02 09:00:00 TS -20.1987 121.045 main 0 0 ______P__P__P_ -1 -20.2230 120.961 20 25 1000 -20.2383 120.939 TC 30 1000 -20.1350 121.235 TC 20 1000 11 253
1979043S11161 1979 12 SI WA ROSA 1979-03-02 12:00:00 TS -20.3667 120.500 25 1000 bom main 0 0 ______O__O__O_ -1 -20.4000 120.400 20 25 1000 -20.4000 120.400 TC 30 1000 -20.3000 120.700 TC 20 1000 45 45 9 250
1979043S11161 1979 12 SI WA ROSA 1979-03-02 15:00:00 TS -20.5164 120.099 main 0 0 ______P__P__P_ -1 -20.5307 120.041 20 25 1000 -20.5186 120.030 TC 30 1000 -20.4998 120.228 TC 20 1000 8 247
1979043S11161 1979 12 SI WA ROSA 1979-03-02 18:00:00 TS -20.6688 119.734 main 0 0 ______P__P__O_ -1 -20.6635 119.721 20 25 1000 -20.6428 119.681 TC 30 1000 -20.7000 119.800 TC 20 1000 8 246
1979043S11161 1979 12 SI WA ROSA 1979-03-02 21:00:00 TS -20.8191 119.358 main 0 0 ______P__P__P_ -1 -20.8198 119.348 20 25 1000 -20.7958 119.267 TC 30 1000 -20.8417 119.459 TC 20 1000 9 248
1979043S11161 1979 12 SI WA ROSA 1979-03-03 00:00:00 TS -21.0067 118.841 main 0 0 ______P__O__O_ -1 -21.0201 118.824 20 25 1000 -21.0000 118.700 TC 30 1000 -21.0000 119.000 TC 20 1000 11 249
1979043S11161 1979 12 SI WA ROSA 1979-03-03 01:00:00 TS -21.0832 118.614 25 1000 bom main 0 0 ______O__P__P_ -1 -21.1000 118.600 20 25 1000 -21.0828 118.463 TC 30 1000 -21.0667 118.778 TC 20 1000 45 45 16 251
1979043S11161 1979 12 SI WA ROSA 1979-03-03 03:00:00 TS -21.2697 118.038 main 0 0 ______P__P__P_ -1 -21.3198 117.951 20 25 1000 -21.2694 117.917 TC 30 1000 -21.2199 118.247 TC 20 1000 19 251
1979043S11161 1979 12 SI WA ROSA 1979-03-03 06:00:00 TS -21.5914 117.032 main 0 0 ______P__P__O_ -1 -21.6841 116.825 20 25 1000 -21.5897 116.950 TC 30 1000 -21.5000 117.300 TC 20 1000 21 251
1979043S11161 1979 12 SI WA ROSA 1979-03-03 09:00:00 TS -21.9438 115.938 main 0 0 ______P__P__P_ -1 -22.0313 115.679 20 25 1000 -21.9399 115.858 TC 30 1000 -21.8581 116.236 TC 20 1000 20 251
1979043S11161 1979 12 SI WA ROSA 1979-03-03 12:00:00 TS -22.2500 114.950 25 1000 bom main 0 0 ______O__O__O_ -1 -22.3000 114.700 20 25 1000 -22.3000 114.700 TC 30 1000 -22.2000 115.200 TC 20 1000 45 45 16 252
1979043S11161 1979 12 SI WA ROSA 1979-03-03 15:00:00 TS -22.4392 114.265 main 10 0 ______P_____P_ -1 -22.4595 114.000 20 25 1000 TC -22.4290 114.397 TC 20 1000 13 253
1979043S11161 1979 12 SI WA ROSA 1979-03-03 16:00:00 TS -22.4921 114.087 25 1000 bom main 0 0 ______O_____P_ -1 -22.5000 113.800 20 25 1000 TC -22.4901 114.159 TC 20 1000 45 45 11 253
1979043S11161 1979 12 SI WA ROSA 1979-03-03 18:00:00 TS -22.6000 113.700 main 0 0 ____________O_ -1 20 TC -22.6000 113.700 TC 20 1000 12 255
1979043S11161 1979 12 SI WA ROSA 1979-03-03 21:00:00 TS -22.7534 113.005 main 65 65 ____________P_ -1 TC -22.7534 113.005 TC 20 1000 13 257
1979043S11161 1979 12 SI WA ROSA 1979-03-04 00:00:00 TS -22.9000 112.300 main 137 ____________O_ -1 -22.9000 112.300 TC 20 1000 13 257

デジタル台風データ・検索

IBTrACS Databaseについて

本データベースは、米国NOAAが公開する1842年以降の世界の熱帯低気圧のベストトラックデータアーカイブInternational Best Track Archive for Climate Stewardship (IBTrACS)を、ウェブで閲覧しやすい形式に変換したものです。

最終更新日:2021-10-21